Time;durP1;ratioP1;P1;durP2;ratioP2;P2;SDS_P1;SDS_P2;PMS_P1;PMS_P2;Temp;Humidity;BMP_temperature;BMP_pressure;BME280_temperature;BME280_humidity;BME280_pressure;Samples;Min_cycle;Max_cycle;Signal;HPM_P1;HPM_P2
2022/01/17 00:02:22;;;;;;;147.60;37.88;;;;;;;;;;5018186;28;20026;-84
2022/01/17 00:04:48;;;;;;;141.07;38.00;;;;;;;;;;5019271;28;20112;-84
2022/01/17 00:07:15;;;;;;;142.20;39.72;;;;;;;;;;5019264;28;20030;-83
2022/01/17 00:09:43;;;;;;;142.25;39.88;;;;;;;;;;5018801;28;20018;-84
2022/01/17 00:12:10;;;;;;;145.38;41.38;;;;;;;;;;5031366;28;20073;-84
2022/01/17 00:14:40;;;;;;;156.02;39.47;;;;;;;;;;5036317;28;20022;-84
2022/01/17 00:19:53;;;;;;;133.40;38.78;;;;;;;;;;5016745;28;20050;-85
2022/01/17 00:22:20;;;;;;;152.25;39.08;;;;;;;;;;5009172;28;20045;-85
2022/01/17 00:24:47;;;;;;;149.82;39.25;;;;;;;;;;4999534;28;20048;-84
2022/01/17 00:27:13;;;;;;;153.23;40.20;;;;;;;;;;5013310;28;20025;-84
2022/01/17 00:29:39;;;;;;;150.88;42.97;;;;;;;;;;5021724;28;20437;-85
2022/01/17 00:32:05;;;;;;;142.45;39.13;;;;;;;;;;5020844;28;20018;-86
2022/01/17 00:34:31;;;;;;;148.35;39.38;;;;;;;;;;5021484;28;20036;-83
2022/01/17 00:36:58;;;;;;;168.82;42.67;;;;;;;;;;5020737;28;20041;-85
2022/01/17 00:39:24;;;;;;;143.57;38.50;;;;;;;;;;5021219;28;20024;-84
2022/01/17 00:41:50;;;;;;;141.60;38.63;;;;;;;;;;5019843;28;20028;-84
2022/01/17 00:44:20;;;;;;;125.07;37.70;;;;;;;;;;5022802;28;20104;-85
2022/01/17 00:46:46;;;;;;;128.18;36.33;;;;;;;;;;5019328;28;20060;-85
2022/01/17 00:49:12;;;;;;;133.85;36.58;;;;;;;;;;5018474;28;20033;-85
2022/01/17 00:51:38;;;;;;;130.50;37.58;;;;;;;;;;5020452;28;20022;-85
2022/01/17 00:54:06;;;;;;;130.88;36.25;;;;;;;;;;5019231;28;20053;-84
2022/01/17 00:56:32;;;;;;;115.18;35.55;;;;;;;;;;5020220;28;20061;-84
2022/01/17 00:58:58;;;;;;;117.80;33.35;;;;;;;;;;5022493;28;20026;-85
2022/01/17 01:01:24;;;;;;;106.10;35.10;;;;;;;;;;5001904;28;20019;-83
2022/01/17 01:03:50;;;;;;;109.15;34.45;;;;;;;;;;5002818;28;20023;-85
2022/01/17 01:06:16;;;;;;;137.18;38.00;;;;;;;;;;5002561;28;20118;-84
2022/01/17 01:08:43;;;;;;;142.35;37.80;;;;;;;;;;5004518;28;20034;-84
2022/01/17 01:11:12;;;;;;;138.60;37.38;;;;;;;;;;5012320;28;20106;-83
2022/01/17 01:13:38;;;;;;;129.98;36.53;;;;;;;;;;5008755;28;20030;-85
2022/01/17 01:21:58;;;;;;;131.35;38.88;;;;;;;;;;5003720;28;20035;-84
2022/01/17 01:29:21;;;;;;;105.53;33.80;;;;;;;;;;5020049;28;20072;-83
2022/01/17 01:31:52;;;;;;;125.80;37.20;;;;;;;;;;5017166;28;20025;-84
2022/01/17 01:34:26;;;;;;;119.55;34.67;;;;;;;;;;5017309;28;20095;-83
2022/01/17 01:36:52;;;;;;;124.63;35.95;;;;;;;;;;5019013;28;20097;-84
2022/01/17 01:39:23;;;;;;;118.95;33.28;;;;;;;;;;5022489;28;20029;-83
2022/01/17 01:41:49;;;;;;;;;;;;;;;;;;5020885;28;20022;-84
2022/01/17 01:44:16;;;;;;;101.28;30.40;;;;;;;;;;5020465;28;19981;-83
2022/01/17 01:46:43;;;;;;;117.25;32.42;;;;;;;;;;5015698;28;20385;-83
2022/01/17 01:49:09;;;;;;;113.90;33.17;;;;;;;;;;5000029;28;20101;-83
2022/01/17 01:51:38;;;;;;;104.25;32.58;;;;;;;;;;4999635;28;20019;-84
2022/01/17 01:54:04;;;;;;;109.00;32.67;;;;;;;;;;5001165;28;20026;-84
2022/01/17 01:56:30;;;;;;;110.95;31.50;;;;;;;;;;5007057;28;20041;-84
2022/01/17 01:58:56;;;;;;;112.20;33.65;;;;;;;;;;5017182;28;20068;-82
2022/01/17 02:01:23;;;;;;;113.55;31.10;;;;;;;;;;5021984;28;20390;-83
2022/01/17 02:03:50;;;;;;;115.93;33.53;;;;;;;;;;5022982;28;20026;-83
2022/01/17 02:06:16;;;;;;;105.47;30.38;;;;;;;;;;5020962;28;20030;-81
2022/01/17 02:08:42;;;;;;;91.97;30.88;;;;;;;;;;5023697;28;20049;-83
2022/01/17 02:11:10;;;;;;;103.28;30.88;;;;;;;;;;5022805;28;20054;-84
2022/01/17 02:13:38;;;;;;;118.13;33.47;;;;;;;;;;5022996;28;20062;-84
2022/01/17 02:16:05;;;;;;;113.55;32.70;;;;;;;;;;5021915;28;20107;-84
2022/01/17 02:18:31;;;;;;;115.60;31.27;;;;;;;;;;5022167;28;20050;-83
2022/01/17 02:21:45;;;;;;;118.45;34.00;;;;;;;;;;5024031;28;20040;-84
2022/01/17 02:24:00;;;;;;;126.30;34.80;;;;;;;;;;5022004;28;20375;-84
2022/01/17 02:26:27;;;;;;;115.63;32.70;;;;;;;;;;5023395;28;20037;-83
2022/01/17 02:28:54;;;;;;;112.93;33.75;;;;;;;;;;5023428;28;20025;-83
2022/01/17 02:31:21;;;;;;;118.30;33.63;;;;;;;;;;5021788;28;20026;-83
2022/01/17 02:33:49;;;;;;;132.93;35.25;;;;;;;;;;5021974;28;20470;-83
2022/01/17 02:36:15;;;;;;;115.05;33.15;;;;;;;;;;5024097;28;20048;-83
2022/01/17 02:38:42;;;;;;;118.07;33.65;;;;;;;;;;5024594;28;20026;-83
2022/01/17 02:41:08;;;;;;;120.68;33.60;;;;;;;;;;5024788;28;20037;-83
2022/01/17 02:43:35;;;;;;;123.28;32.65;;;;;;;;;;5024143;28;20029;-83
2022/01/17 02:48:29;;;;;;;133.77;34.80;;;;;;;;;;5022796;28;20022;-83
2022/01/17 02:50:55;;;;;;;115.07;31.83;;;;;;;;;;5024005;28;20022;-83
2022/01/17 02:53:21;;;;;;;114.30;32.00;;;;;;;;;;5023744;28;20057;-84
2022/01/17 02:55:51;;;;;;;120.18;31.38;;;;;;;;;;5023813;28;20117;-83
2022/01/17 02:58:19;;;;;;;123.57;33.67;;;;;;;;;;5022047;28;20022;-83
2022/01/17 03:00:46;;;;;;;119.40;33.13;;;;;;;;;;5020364;28;20105;-83
2022/01/17 03:03:16;;;;;;;118.00;33.08;;;;;;;;;;5021224;28;20045;-83
2022/01/17 03:05:42;;;;;;;117.97;30.13;;;;;;;;;;5030623;28;20030;-83
2022/01/17 03:08:08;;;;;;;115.38;32.25;;;;;;;;;;5028829;28;20072;-85
2022/01/17 03:13:02;;;;;;;120.20;30.77;;;;;;;;;;5022841;28;20351;-85
2022/01/17 03:15:28;;;;;;;121.72;31.77;;;;;;;;;;5018932;28;20376;-85
2022/01/17 03:17:55;;;;;;;126.10;31.67;;;;;;;;;;5001970;28;20038;-85
2022/01/17 03:20:21;;;;;;;135.13;34.25;;;;;;;;;;5001923;28;20024;-84
2022/01/17 03:22:55;;;;;;;122.63;33.67;;;;;;;;;;5016615;28;20026;-84
2022/01/17 03:25:22;;;;;;;133.75;31.63;;;;;;;;;;5020492;28;20458;-84
2022/01/17 03:27:48;;;;;;;127.32;33.47;;;;;;;;;;5019017;28;20084;-84
2022/01/17 03:30:14;;;;;;;121.75;32.63;;;;;;;;;;5019226;28;20097;-84
2022/01/17 03:32:40;;;;;;;125.55;31.10;;;;;;;;;;5018764;28;20117;-84
2022/01/17 03:37:38;;;;;;;113.93;32.28;;;;;;;;;;5034436;23;20229;-85
2022/01/17 03:40:07;;;;;;;118.82;32.10;;;;;;;;;;4996711;28;20530;-86
2022/01/17 03:42:33;;;;;;;123.65;35.38;;;;;;;;;;4997851;28;20553;-86
2022/01/17 03:45:00;;;;;;;117.78;33.17;;;;;;;;;;4996790;28;20466;-85
2022/01/17 03:47:27;;;;;;;109.43;32.97;;;;;;;;;;4996471;28;20052;-85
2022/01/17 03:49:53;;;;;;;101.60;32.83;;;;;;;;;;4997783;28;20035;-85
2022/01/17 03:52:19;;;;;;;113.28;31.20;;;;;;;;;;5005267;28;20037;-86
2022/01/17 03:54:45;;;;;;;133.40;34.38;;;;;;;;;;5002544;28;20031;-85
2022/01/17 03:57:11;;;;;;;112.80;32.95;;;;;;;;;;4994906;28;20018;-86
2022/01/17 03:59:37;;;;;;;111.57;31.52;;;;;;;;;;4988197;28;20636;-86
2022/01/17 04:02:03;;;;;;;122.93;32.25;;;;;;;;;;4977352;28;20025;-86
2022/01/17 04:04:29;;;;;;;117.70;33.40;;;;;;;;;;4977002;28;20030;-86
2022/01/17 04:06:55;;;;;;;109.20;31.98;;;;;;;;;;4976222;28;20027;-86
2022/01/17 04:09:21;;;;;;;105.78;31.85;;;;;;;;;;4975993;28;20027;-86
2022/01/17 04:11:50;;;;;;;109.82;30.58;;;;;;;;;;4987062;28;20046;-86
2022/01/17 04:14:17;;;;;;;116.72;32.00;;;;;;;;;;4998252;28;20130;-86
2022/01/17 04:16:43;;;;;;;113.25;29.45;;;;;;;;;;4991977;28;20039;-86
2022/01/17 04:19:10;;;;;;;107.90;31.67;;;;;;;;;;4987937;28;20095;-87
2022/01/17 04:21:37;;;;;;;111.55;30.83;;;;;;;;;;4977285;28;20019;-86
2022/01/17 04:24:03;;;;;;;108.90;31.52;;;;;;;;;;4975611;28;20118;-87
2022/01/17 04:26:29;;;;;;;110.15;30.52;;;;;;;;;;4975030;28;20573;-84
2022/01/17 04:28:55;;;;;;;121.53;31.02;;;;;;;;;;4976911;28;20027;-84
2022/01/17 04:31:21;;;;;;;117.07;30.40;;;;;;;;;;4975653;28;20019;-84
2022/01/17 04:33:47;;;;;;;111.82;33.30;;;;;;;;;;4977028;28;20023;-86
2022/01/17 04:36:13;;;;;;;113.57;32.78;;;;;;;;;;4976323;28;20042;-85
2022/01/17 04:38:39;;;;;;;109.85;30.27;;;;;;;;;;4975183;28;20368;-85
2022/01/17 04:41:11;;;;;;;109.28;30.63;;;;;;;;;;4976346;28;20033;-84
2022/01/17 04:46:04;;;;;;;125.13;29.75;;;;;;;;;;4995162;28;20096;-84
2022/01/17 04:48:30;;;;;;;105.40;31.10;;;;;;;;;;4995149;28;20030;-85
2022/01/17 04:50:58;;;;;;;115.45;30.15;;;;;;;;;;4996105;28;20030;-86
2022/01/17 04:53:25;;;;;;;117.88;32.95;;;;;;;;;;4994664;28;20027;-85
2022/01/17 04:55:51;;;;;;;116.05;31.90;;;;;;;;;;4994430;28;20022;-85
2022/01/17 04:58:17;;;;;;;132.70;32.97;;;;;;;;;;4992784;28;20493;-85
2022/01/17 05:00:46;;;;;;;104.60;31.02;;;;;;;;;;4974393;28;20055;-85
2022/01/17 05:03:16;;;;;;;127.38;32.83;;;;;;;;;;4975969;28;20106;-85
2022/01/17 05:05:42;;;;;;;114.97;32.97;;;;;;;;;;4976857;28;20442;-85
2022/01/17 05:08:08;;;;;;;115.10;31.75;;;;;;;;;;4973311;28;20074;-85
2022/01/17 05:10:35;;;;;;;121.75;31.27;;;;;;;;;;4973119;28;20431;-85
2022/01/17 05:13:01;;;;;;;115.82;29.98;;;;;;;;;;4973497;28;20019;-85
2022/01/17 05:20:22;;;;;;;106.57;31.23;;;;;;;;;;4973308;28;20391;-85
2022/01/17 05:22:48;;;;;;;100.10;31.05;;;;;;;;;;4972143;28;20446;-85
2022/01/17 05:25:14;;;;;;;103.60;29.77;;;;;;;;;;4971923;28;20360;-85
2022/01/17 05:27:41;;;;;;;110.25;31.38;;;;;;;;;;4972071;28;20027;-85
2022/01/17 05:30:09;;;;;;;103.60;29.40;;;;;;;;;;4972829;28;20027;-85
2022/01/17 05:32:35;;;;;;;103.13;30.95;;;;;;;;;;4973380;28;20054;-85
2022/01/17 05:35:01;;;;;;;92.30;30.00;;;;;;;;;;4973423;28;20050;-85
2022/01/17 05:37:27;;;;;;;104.60;31.05;;;;;;;;;;4975179;28;20093;-84
2022/01/17 05:39:53;;;;;;;99.22;30.27;;;;;;;;;;4976230;28;20031;-85
2022/01/17 05:42:20;;;;;;;117.13;31.13;;;;;;;;;;4977058;28;20391;-85
2022/01/17 05:44:46;;;;;;;118.70;31.65;;;;;;;;;;4984015;28;20037;-85
2022/01/17 05:47:12;;;;;;;95.10;28.88;;;;;;;;;;4995955;28;20065;-84
2022/01/17 05:49:39;;;;;;;115.10;28.33;;;;;;;;;;4996718;28;20022;-85
2022/01/17 05:52:08;;;;;;;102.57;26.52;;;;;;;;;;4995333;28;20028;-85
2022/01/17 05:54:34;;;;;;;90.05;27.92;;;;;;;;;;4996609;28;20448;-85
2022/01/17 05:57:00;;;;;;;105.60;26.38;;;;;;;;;;4995394;28;20058;-85
2022/01/17 05:59:28;;;;;;;94.45;26.92;;;;;;;;;;4991055;28;20502;-85
2022/01/17 06:01:55;;;;;;;114.60;28.23;;;;;;;;;;4976809;28;20102;-84
2022/01/17 06:04:21;;;;;;;99.43;27.05;;;;;;;;;;4979398;28;20635;-85
2022/01/17 06:06:47;;;;;;;90.45;26.20;;;;;;;;;;4978016;28;20019;-84
2022/01/17 06:09:13;;;;;;;107.57;28.10;;;;;;;;;;4978293;28;20434;-84
2022/01/17 06:11:39;;;;;;;104.80;30.58;;;;;;;;;;4978014;28;20398;-85
2022/01/17 06:14:07;;;;;;;114.50;27.70;;;;;;;;;;4975787;28;20398;-85
2022/01/17 06:16:33;;;;;;;114.20;26.90;;;;;;;;;;4988428;28;20030;-85
2022/01/17 06:18:59;;;;;;;104.82;29.92;;;;;;;;;;4996288;28;20034;-85
2022/01/17 06:21:26;;;;;;;125.82;26.77;;;;;;;;;;5008977;28;20069;-86
2022/01/17 06:23:53;;;;;;;123.95;29.88;;;;;;;;;;4996471;28;20102;-84
2022/01/17 06:26:19;;;;;;;141.65;29.70;;;;;;;;;;4976229;28;20499;-86
2022/01/17 06:28:45;;;;;;;132.68;28.90;;;;;;;;;;4976163;28;20031;-85
2022/01/17 06:31:11;;;;;;;113.68;28.58;;;;;;;;;;4977183;28;20018;-84
2022/01/17 06:33:37;;;;;;;94.55;27.90;;;;;;;;;;4976038;28;20038;-85
2022/01/17 06:36:04;;;;;;;125.22;29.17;;;;;;;;;;4975297;28;20172;-86
2022/01/17 06:38:30;;;;;;;144.65;29.48;;;;;;;;;;4975873;28;20055;-85
2022/01/17 06:40:56;;;;;;;124.40;30.58;;;;;;;;;;4977045;28;20044;-85
2022/01/17 06:43:22;;;;;;;102.90;29.35;;;;;;;;;;4978342;28;20031;-85
2022/01/17 06:45:48;;;;;;;128.10;29.98;;;;;;;;;;4996183;28;20090;-85
2022/01/17 06:48:14;;;;;;;114.05;28.33;;;;;;;;;;4995715;28;20114;-85
2022/01/17 06:50:40;;;;;;;129.60;29.40;;;;;;;;;;4996239;28;20513;-85
2022/01/17 06:53:06;;;;;;;110.65;30.50;;;;;;;;;;4994565;28;20026;-85
2022/01/17 06:55:32;;;;;;;107.95;28.02;;;;;;;;;;4993828;28;20045;-85
2022/01/17 06:57:58;;;;;;;111.90;28.08;;;;;;;;;;4993643;28;20038;-85
2022/01/17 07:00:24;;;;;;;121.68;31.45;;;;;;;;;;4980784;28;20050;-85
2022/01/17 07:02:50;;;;;;;106.50;30.52;;;;;;;;;;4977174;28;20037;-85
2022/01/17 07:05:16;;;;;;;107.97;27.70;;;;;;;;;;4978216;28;20399;-85
2022/01/17 07:07:43;;;;;;;91.57;26.85;;;;;;;;;;4977094;28;20367;-85
2022/01/17 07:10:09;;;;;;;114.22;27.15;;;;;;;;;;4997464;28;20026;-85
2022/01/17 07:12:36;;;;;;;101.57;26.35;;;;;;;;;;4999875;28;20046;-85
2022/01/17 07:15:02;;;;;;;136.18;28.02;;;;;;;;;;4999648;28;20025;-86
2022/01/17 07:17:28;;;;;;;126.13;27.15;;;;;;;;;;4977299;28;20434;-85
2022/01/17 07:19:54;;;;;;;120.38;27.83;;;;;;;;;;4979309;28;20081;-85
2022/01/17 07:22:20;;;;;;;170.15;30.38;;;;;;;;;;4995092;28;20026;-85
2022/01/17 07:24:47;;;;;;;104.38;27.17;;;;;;;;;;4994638;28;20030;-85
2022/01/17 07:27:14;;;;;;;96.13;25.88;;;;;;;;;;4995966;28;20370;-85
2022/01/17 07:29:40;;;;;;;106.35;27.33;;;;;;;;;;4983821;28;20102;-85
2022/01/17 07:32:07;;;;;;;96.75;28.10;;;;;;;;;;4977190;28;20083;-85
2022/01/17 07:34:33;;;;;;;117.13;27.98;;;;;;;;;;4992039;28;20061;-85
2022/01/17 07:36:59;;;;;;;103.18;27.35;;;;;;;;;;4976940;28;20469;-84
2022/01/17 07:39:25;;;;;;;111.40;28.42;;;;;;;;;;4977242;28;20023;-85
2022/01/17 07:41:52;;;;;;;114.03;28.95;;;;;;;;;;4977573;28;20475;-84
2022/01/17 07:44:19;;;;;;;100.85;29.80;;;;;;;;;;4975759;28;20462;-84
2022/01/17 07:46:49;;;;;;;103.38;28.65;;;;;;;;;;4990735;28;20041;-84
2022/01/17 07:49:19;;;;;;;100.50;26.85;;;;;;;;;;4995704;28;20038;-84
2022/01/17 07:51:46;;;;;;;102.25;27.13;;;;;;;;;;4996279;28;20022;-84
2022/01/17 07:54:14;;;;;;;120.30;28.83;;;;;;;;;;4998109;28;20027;-85
2022/01/17 07:56:41;;;;;;;107.80;28.55;;;;;;;;;;4997712;28;20169;-85
2022/01/17 07:59:07;;;;;;;98.40;26.60;;;;;;;;;;4995996;28;20396;-86
2022/01/17 08:01:33;;;;;;;113.85;27.95;;;;;;;;;;4979577;28;20106;-85
2022/01/17 08:04:00;;;;;;;110.22;25.27;;;;;;;;;;4978058;28;20054;-85
2022/01/17 08:06:26;;;;;;;83.38;23.08;;;;;;;;;;4977457;28;20474;-85
2022/01/17 08:08:55;;;;;;;88.78;24.17;;;;;;;;;;4977973;28;20026;-84
2022/01/17 08:11:21;;;;;;;103.45;24.35;;;;;;;;;;4974322;28;20395;-85
2022/01/17 08:13:47;;;;;;;121.53;23.95;;;;;;;;;;4973701;28;20054;-84
2022/01/17 08:16:14;;;;;;;99.32;24.02;;;;;;;;;;4975115;28;20022;-85
2022/01/17 08:18:41;;;;;;;93.18;24.58;;;;;;;;;;4973958;28;20026;-84
2022/01/17 08:21:07;;;;;;;94.05;24.50;;;;;;;;;;4974966;28;20553;-85
2022/01/17 08:23:33;;;;;;;92.60;26.17;;;;;;;;;;4989641;28;20031;-85
2022/01/17 08:25:59;;;;;;;96.13;24.42;;;;;;;;;;4995302;28;20078;-83
2022/01/17 08:28:25;;;;;;;96.82;25.52;;;;;;;;;;4994154;28;20099;-85
2022/01/17 08:30:51;;;;;;;89.78;21.13;;;;;;;;;;4976732;28;20019;-84
2022/01/17 08:33:17;;;;;;;86.40;23.35;;;;;;;;;;4975889;28;20077;-84
2022/01/17 08:35:44;;;;;;;77.60;21.15;;;;;;;;;;4976819;28;20047;-85
2022/01/17 08:38:10;;;;;;;74.25;23.42;;;;;;;;;;4978644;28;20027;-84
2022/01/17 08:40:36;;;;;;;96.35;22.20;;;;;;;;;;4979317;28;20561;-88
2022/01/17 08:43:02;;;;;;;101.97;23.98;;;;;;;;;;4978368;28;20479;-85
2022/01/17 08:45:29;;;;;;;82.22;23.30;;;;;;;;;;4978125;28;20038;-86
2022/01/17 08:47:55;;;;;;;88.85;23.45;;;;;;;;;;4982434;28;20129;-85
2022/01/17 08:50:23;;;;;;;101.65;22.33;;;;;;;;;;4978843;28;20471;-86
2022/01/17 08:52:49;;;;;;;83.82;22.17;;;;;;;;;;4977315;28;20081;-86
2022/01/17 08:55:16;;;;;;;93.60;22.95;;;;;;;;;;4978206;28;20030;-86
2022/01/17 08:57:42;;;;;;;87.32;24.17;;;;;;;;;;4976486;28;20027;-86
2022/01/17 09:00:10;;;;;;;110.55;24.13;;;;;;;;;;4980502;28;20027;-85
2022/01/17 09:02:37;;;;;;;109.68;25.85;;;;;;;;;;4977827;28;20027;-86
2022/01/17 09:05:03;;;;;;;88.32;25.42;;;;;;;;;;4977109;28;20104;-85
2022/01/17 09:07:29;;;;;;;92.88;24.38;;;;;;;;;;4977845;28;20029;-86
2022/01/17 09:09:55;;;;;;;124.25;24.25;;;;;;;;;;4975817;28;20023;-85
2022/01/17 09:12:21;;;;;;;101.68;25.25;;;;;;;;;;4977114;28;20086;-86
2022/01/17 09:14:47;;;;;;;80.85;24.58;;;;;;;;;;4976260;28;20038;-86
2022/01/17 09:17:13;;;;;;;95.43;25.90;;;;;;;;;;4989829;28;20023;-85
2022/01/17 09:19:41;;;;;;;93.93;23.98;;;;;;;;;;4988069;28;20557;-85
2022/01/17 09:22:07;;;;;;;88.60;22.73;;;;;;;;;;4974284;28;20039;-86
2022/01/17 09:24:34;;;;;;;110.35;23.20;;;;;;;;;;4972599;28;20054;-86
2022/01/17 09:27:00;;;;;;;106.78;25.13;;;;;;;;;;4973818;28;20023;-86
2022/01/17 09:29:26;;;;;;;127.00;23.83;;;;;;;;;;4972797;28;20023;-85
2022/01/17 09:31:52;;;;;;;92.25;24.40;;;;;;;;;;4974349;28;20027;-86
2022/01/17 09:34:18;;;;;;;91.78;23.48;;;;;;;;;;4975069;28;20038;-85
2022/01/17 09:36:44;;;;;;;104.78;24.38;;;;;;;;;;4973643;28;20476;-86
2022/01/17 09:39:11;;;;;;;114.80;23.88;;;;;;;;;;4974778;28;20077;-85
2022/01/17 09:41:37;;;;;;;99.93;22.50;;;;;;;;;;4973737;28;20031;-85
2022/01/17 09:44:05;;;;;;;96.70;23.35;;;;;;;;;;4976914;28;20029;-86
2022/01/17 09:46:37;;;;;;;82.32;23.75;;;;;;;;;;4976007;28;20027;-86
2022/01/17 09:49:14;;;;;;;106.60;25.05;;;;;;;;;;4980602;28;20062;-86
2022/01/17 09:52:04;;;;;;;99.28;23.63;;;;;;;;;;4981153;28;20082;-86
2022/01/17 09:54:31;;;;;;;86.97;22.60;;;;;;;;;;4980820;28;20468;-85
2022/01/17 09:56:57;;;;;;;124.45;24.65;;;;;;;;;;4993088;28;20035;-85
2022/01/17 09:59:24;;;;;;;88.82;20.23;;;;;;;;;;4999237;28;20145;-86
2022/01/17 10:01:50;;;;;;;103.25;24.52;;;;;;;;;;4997743;28;20045;-85
2022/01/17 10:04:17;;;;;;;84.40;20.52;;;;;;;;;;4998313;28;20026;-86
2022/01/17 10:06:44;;;;;;;88.22;22.00;;;;;;;;;;4998017;28;20041;-85
2022/01/17 10:09:13;;;;;;;86.88;21.35;;;;;;;;;;4997540;28;20043;-85
2022/01/17 10:12:17;;;;;;;68.68;20.48;;;;;;;;;;4998396;28;20113;-86
2022/01/17 10:15:01;;;;;;;78.57;22.40;;;;;;;;;;4977912;28;20034;-86
2022/01/17 10:17:47;;;;;;;66.85;21.67;;;;;;;;;;4977371;28;20023;-84
2022/01/17 10:20:17;;;;;;;84.38;22.67;;;;;;;;;;4995962;28;20022;-87
2022/01/17 10:22:54;;;;;;;82.47;21.00;;;;;;;;;;5019647;28;20038;-86
2022/01/17 10:30:43;;;;;;;97.90;21.17;;;;;;;;;;5002180;28;20027;-85
2022/01/17 10:35:59;;;;;;;80.60;18.48;;;;;;;;;;5001650;28;20033;-86
2022/01/17 10:38:27;;;;;;;93.68;21.05;;;;;;;;;;5000659;28;20028;-86
2022/01/17 10:40:57;;;;;;;90.00;19.52;;;;;;;;;;5001541;28;20025;-86
2022/01/17 10:43:26;;;;;;;102.43;20.88;;;;;;;;;;5000709;28;20110;-85
2022/01/17 10:45:53;;;;;;;81.55;19.85;;;;;;;;;;5001052;28;20026;-86
2022/01/17 10:48:19;;;;;;;64.57;19.63;;;;;;;;;;5000768;28;20082;-86
2022/01/17 10:50:50;;;;;;;84.78;21.08;;;;;;;;;;5000071;28;20014;-87
2022/01/17 10:53:16;;;;;;;83.97;19.58;;;;;;;;;;5000208;28;20011;-87
2022/01/17 10:55:45;;;;;;;73.38;20.48;;;;;;;;;;5000763;28;20022;-86
2022/01/17 10:58:17;;;;;;;63.65;18.42;;;;;;;;;;5000183;28;20018;-85
2022/01/17 11:00:46;;;;;;;96.47;20.65;;;;;;;;;;4999673;28;20035;-84
2022/01/17 11:03:13;;;;;;;71.65;20.05;;;;;;;;;;4999895;28;20011;-84
2022/01/17 11:05:41;;;;;;;85.53;20.15;;;;;;;;;;5001435;28;20027;-85
2022/01/17 11:08:08;;;;;;;64.22;18.98;;;;;;;;;;5017838;28;20025;-85
2022/01/17 11:10:39;;;;;;;64.72;20.05;;;;;;;;;;5018316;28;20006;-84
2022/01/17 11:13:07;;;;;;;;;;;;;;;;;;5019876;28;20011;-86
2022/01/17 11:15:34;;;;;;;55.45;17.65;;;;;;;;;;5019665;28;19906;-84
2022/01/17 11:18:05;;;;;;;60.50;19.17;;;;;;;;;;5019259;28;20021;-85
2022/01/17 11:20:32;;;;;;;56.00;19.25;;;;;;;;;;5007484;28;20045;-86
2022/01/17 11:22:59;;;;;;;68.57;19.00;;;;;;;;;;4998876;28;20018;-86
2022/01/17 11:25:28;;;;;;;59.08;18.63;;;;;;;;;;4997493;28;20058;-86
2022/01/17 11:27:54;;;;;;;54.10;18.65;;;;;;;;;;4986676;28;20038;-85
2022/01/17 11:30:21;;;;;;;54.88;17.65;;;;;;;;;;4989840;28;20129;-86
2022/01/17 11:32:48;;;;;;;69.82;19.92;;;;;;;;;;4988913;28;20126;-84
2022/01/17 11:35:16;;;;;;;74.55;19.42;;;;;;;;;;4977109;28;20051;-84
2022/01/17 11:37:44;;;;;;;51.78;19.42;;;;;;;;;;4977116;28;20410;-85
2022/01/17 11:40:11;;;;;;;55.47;19.60;;;;;;;;;;4986399;28;20049;-86
2022/01/17 11:42:39;;;;;;;67.60;18.13;;;;;;;;;;4975937;28;20424;-86
2022/01/17 11:45:25;;;;;;;51.63;18.73;;;;;;;;;;4979411;28;20486;-85
2022/01/17 11:48:03;;;;;;;54.70;16.80;;;;;;;;;;4974890;28;20031;-85
2022/01/17 11:50:36;;;;;;;67.35;18.13;;;;;;;;;;4976122;28;20105;-85
2022/01/17 11:53:12;;;;;;;55.00;16.65;;;;;;;;;;4974251;28;20081;-85
2022/01/17 11:55:43;;;;;;;65.05;18.42;;;;;;;;;;4975259;28;20542;-85
2022/01/17 11:58:21;;;;;;;60.60;17.40;;;;;;;;;;4977789;28;20035;-84
2022/01/17 12:00:48;;;;;;;67.25;17.23;;;;;;;;;;4975947;28;20106;-84
2022/01/17 12:03:18;;;;;;;73.20;19.40;;;;;;;;;;4981069;28;20027;-84
2022/01/17 12:05:44;;;;;;;64.47;16.38;;;;;;;;;;4974809;28;20089;-85
2022/01/17 12:08:11;;;;;;;57.83;17.70;;;;;;;;;;4972218;28;20450;-85
2022/01/17 12:10:51;;;;;;;79.20;18.38;;;;;;;;;;4975493;28;20034;-85
2022/01/17 12:13:22;;;;;;;53.83;18.08;;;;;;;;;;4974104;28;20023;-86
2022/01/17 12:15:55;;;;;;;62.03;19.35;;;;;;;;;;4980953;28;20110;-86
2022/01/17 12:18:29;;;;;;;73.40;18.10;;;;;;;;;;4994937;28;20344;-85
2022/01/17 12:20:58;;;;;;;76.88;17.95;;;;;;;;;;4979428;28;20057;-84
2022/01/17 12:23:26;;;;;;;51.60;17.08;;;;;;;;;;4975671;28;20074;-84
2022/01/17 12:25:52;;;;;;;90.10;18.17;;;;;;;;;;4974012;28;20031;-87
2022/01/17 12:28:18;;;;;;;90.03;18.02;;;;;;;;;;4976791;28;20033;-84
2022/01/17 12:30:45;;;;;;;83.85;18.67;;;;;;;;;;4980232;28;20102;-85
2022/01/17 12:33:11;;;;;;;86.13;19.55;;;;;;;;;;4985970;28;20025;-86
2022/01/17 12:35:46;;;;;;;86.93;17.42;;;;;;;;;;4986165;28;20039;-86
2022/01/17 12:38:15;;;;;;;127.53;18.17;;;;;;;;;;4986946;28;20029;-85
2022/01/17 12:40:43;;;;;;;81.18;18.65;;;;;;;;;;4978256;28;20049;-86
2022/01/17 12:43:12;;;;;;;79.15;19.70;;;;;;;;;;4986821;28;20105;-86
2022/01/17 12:45:46;;;;;;;90.80;20.13;;;;;;;;;;4983751;28;20039;-86
2022/01/17 12:48:16;;;;;;;157.05;21.25;;;;;;;;;;4979989;28;20053;-85
2022/01/17 12:50:44;;;;;;;113.23;20.53;;;;;;;;;;4975351;28;20034;-85
2022/01/17 12:53:11;;;;;;;121.13;19.02;;;;;;;;;;4976378;28;20905;-86
2022/01/17 12:55:41;;;;;;;78.25;18.60;;;;;;;;;;4974765;28;20525;-85
2022/01/17 12:58:36;;;;;;;179.10;22.05;;;;;;;;;;4976103;28;20030;-86
2022/01/17 13:01:02;;;;;;;77.15;19.20;;;;;;;;;;4970036;28;20059;-86
2022/01/17 13:03:29;;;;;;;84.63;18.85;;;;;;;;;;4975898;28;20089;-85
2022/01/17 13:05:56;;;;;;;121.03;21.05;;;;;;;;;;4975716;28;20022;-83
2022/01/17 13:08:23;;;;;;;71.18;18.92;;;;;;;;;;4974251;28;20034;-85
2022/01/17 13:10:50;;;;;;;89.57;20.77;;;;;;;;;;4975548;28;20094;-85
2022/01/17 13:13:17;;;;;;;102.35;19.58;;;;;;;;;;4977968;28;20027;-85
2022/01/17 13:15:55;;;;;;;116.13;20.88;;;;;;;;;;4977585;28;20387;-85
2022/01/17 13:18:21;;;;;;;95.63;20.95;;;;;;;;;;4975804;28;20386;-86
2022/01/17 13:20:48;;;;;;;79.93;19.55;;;;;;;;;;4989157;28;20522;-86
2022/01/17 13:23:18;;;;;;;84.20;21.10;;;;;;;;;;4996614;28;20026;-85
2022/01/17 13:25:44;;;;;;;112.13;22.65;;;;;;;;;;4994785;28;20026;-84
2022/01/17 13:28:10;;;;;;;100.13;21.00;;;;;;;;;;4996044;28;20463;-84
2022/01/17 13:30:37;;;;;;;75.13;20.90;;;;;;;;;;4995841;28;20018;-84
2022/01/17 13:33:07;;;;;;;76.50;21.20;;;;;;;;;;4994483;28;20029;-85
2022/01/17 13:35:35;;;;;;;89.22;25.55;;;;;;;;;;4995955;28;20089;-85
2022/01/17 13:38:20;;;;;;;82.15;21.80;;;;;;;;;;4995481;28;20096;-85
2022/01/17 13:40:47;;;;;;;74.70;21.70;;;;;;;;;;4995026;28;20130;-85
2022/01/17 13:43:13;;;;;;;101.63;23.45;;;;;;;;;;4995237;28;20060;-85
2022/01/17 13:45:47;;;;;;;91.00;23.63;;;;;;;;;;4996187;28;20502;-84
2022/01/17 13:48:18;;;;;;;70.97;20.67;;;;;;;;;;4995341;28;20477;-85
2022/01/17 13:50:46;;;;;;;78.95;23.65;;;;;;;;;;4995639;28;20018;-85
2022/01/17 13:53:12;;;;;;;83.65;22.77;;;;;;;;;;4994876;28;20402;-85
2022/01/17 13:55:41;;;;;;;119.10;22.15;;;;;;;;;;4995967;28;20034;-84
2022/01/17 13:58:08;;;;;;;91.07;22.20;;;;;;;;;;4998366;28;20233;-85
2022/01/17 14:00:45;;;;;;;104.30;21.98;;;;;;;;;;4981917;28;20031;-84
2022/01/17 14:03:12;;;;;;;74.43;22.42;;;;;;;;;;4979014;28;20027;-85
2022/01/17 14:05:39;;;;;;;97.20;23.30;;;;;;;;;;4980759;28;20406;-85
2022/01/17 14:08:17;;;;;;;89.57;24.10;;;;;;;;;;4979895;28;20047;-85
2022/01/17 14:10:58;;;;;;;72.68;23.00;;;;;;;;;;4979950;28;20454;-86
2022/01/17 14:13:29;;;;;;;65.90;23.58;;;;;;;;;;4977658;28;20502;-86
2022/01/17 14:16:09;;;;;;;84.05;24.00;;;;;;;;;;4985890;28;20630;-85
2022/01/17 14:18:35;;;;;;;72.07;25.02;;;;;;;;;;4997621;28;20498;-85
2022/01/17 14:21:01;;;;;;;76.40;25.98;;;;;;;;;;4981698;28;20115;-86
2022/01/17 14:23:34;;;;;;;97.55;29.25;;;;;;;;;;4979886;28;20094;-84
2022/01/17 14:26:00;;;;;;;79.38;24.92;;;;;;;;;;4980899;28;20034;-84
2022/01/17 14:28:27;;;;;;;93.25;25.98;;;;;;;;;;4981114;28;20030;-84
2022/01/17 14:30:54;;;;;;;83.38;28.08;;;;;;;;;;4979731;28;20053;-84
2022/01/17 14:33:21;;;;;;;131.18;24.70;;;;;;;;;;4978997;28;20031;-84
2022/01/17 14:36:06;;;;;;;108.43;25.23;;;;;;;;;;4977433;28;20042;-83
2022/01/17 14:38:33;;;;;;;105.13;25.80;;;;;;;;;;4985248;28;20037;-84
2022/01/17 14:40:59;;;;;;;123.30;24.90;;;;;;;;;;4977286;28;20058;-84
2022/01/17 14:43:30;;;;;;;95.38;26.92;;;;;;;;;;4976777;28;20475;-85
2022/01/17 14:46:06;;;;;;;90.10;25.33;;;;;;;;;;4977412;28;20111;-84
2022/01/17 14:48:37;;;;;;;112.45;26.95;;;;;;;;;;4975808;28;20034;-85
2022/01/17 14:51:14;;;;;;;115.43;29.20;;;;;;;;;;4977423;28;20023;-84
2022/01/17 14:53:40;;;;;;;100.20;26.20;;;;;;;;;;4976787;28;20022;-84